sensor_id;sensor_type;location;lat;lon;timestamp;temperature;humidity
53520;DHT22;39397;53.204;5.778;2023-03-01T00:01:28;0.20;99.90
53520;DHT22;39397;53.204;5.778;2023-03-01T00:03:54;1.20;99.90
53520;DHT22;39397;53.204;5.778;2023-03-01T00:06:21;1.90;99.90
53520;DHT22;39397;53.204;5.778;2023-03-01T00:08:47;1.10;99.90
53520;DHT22;39397;53.204;5.778;2023-03-01T00:13:44;0.00;99.90
53520;DHT22;39397;53.204;5.778;2023-03-01T00:16:13;0.00;99.90
53520;DHT22;39397;53.204;5.778;2023-03-01T00:18:40;0.90;99.90
53520;DHT22;39397;53.204;5.778;2023-03-01T00:21:06;1.50;99.90
53520;DHT22;39397;53.204;5.778;2023-03-01T00:23:34;1.60;99.90
53520;DHT22;39397;53.204;5.778;2023-03-01T00:26:00;1.10;99.90
53520;DHT22;39397;53.204;5.778;2023-03-01T00:28:26;0.20;99.90
53520;DHT22;39397;53.204;5.778;2023-03-01T00:30:52;0.20;99.90
53520;DHT22;39397;53.204;5.778;2023-03-01T00:33:18;0.20;99.90
53520;DHT22;39397;53.204;5.778;2023-03-01T00:35:44;1.10;99.90
53520;DHT22;39397;53.204;5.778;2023-03-01T00:38:10;0.00;99.90
53520;DHT22;39397;53.204;5.778;2023-03-01T00:40:36;1.80;99.90
53520;DHT22;39397;53.204;5.778;2023-03-01T00:43:03;0.20;99.90
53520;DHT22;39397;53.204;5.778;2023-03-01T00:45:29;0.40;99.90
53520;DHT22;39397;53.204;5.778;2023-03-01T00:47:56;-0.10;99.90
53520;DHT22;39397;53.204;5.778;2023-03-01T00:50:23;-0.10;99.90
53520;DHT22;39397;53.204;5.778;2023-03-01T00:52:53;-0.20;99.90
53520;DHT22;39397;53.204;5.778;2023-03-01T00:55:18;-0.10;99.90
53520;DHT22;39397;53.204;5.778;2023-03-01T00:57:44;0.00;99.90
53520;DHT22;39397;53.204;5.778;2023-03-01T01:00:10;-0.20;99.90
53520;DHT22;39397;53.204;5.778;2023-03-01T01:02:37;-0.30;99.90
53520;DHT22;39397;53.204;5.778;2023-03-01T01:05:03;-0.20;99.90
53520;DHT22;39397;53.204;5.778;2023-03-01T01:07:29;-0.30;99.90
53520;DHT22;39397;53.204;5.778;2023-03-01T01:09:55;1.20;99.90
53520;DHT22;39397;53.204;5.778;2023-03-01T01:12:21;-0.30;99.90
53520;DHT22;39397;53.204;5.778;2023-03-01T01:14:47;-0.30;99.90
53520;DHT22;39397;53.204;5.778;2023-03-01T01:17:13;0.50;99.90
53520;DHT22;39397;53.204;5.778;2023-03-01T01:19:38;0.80;99.90
53520;DHT22;39397;53.204;5.778;2023-03-01T01:22:04;-0.50;99.90
53520;DHT22;39397;53.204;5.778;2023-03-01T01:24:30;-0.50;99.90
53520;DHT22;39397;53.204;5.778;2023-03-01T01:26:56;-0.10;99.90
53520;DHT22;39397;53.204;5.778;2023-03-01T01:29:22;-0.10;99.90
53520;DHT22;39397;53.204;5.778;2023-03-01T01:31:48;-0.60;99.90
53520;DHT22;39397;53.204;5.778;2023-03-01T01:34:18;-0.50;99.90
53520;DHT22;39397;53.204;5.778;2023-03-01T01:36:51;0.80;99.90
53520;DHT22;39397;53.204;5.778;2023-03-01T01:39:18;0.00;99.90
53520;DHT22;39397;53.204;5.778;2023-03-01T01:41:44;-0.60;99.90
53520;DHT22;39397;53.204;5.778;2023-03-01T01:44:25;-0.10;99.90
53520;DHT22;39397;53.204;5.778;2023-03-01T01:46:57;-0.70;99.90
53520;DHT22;39397;53.204;5.778;2023-03-01T01:49:49;-0.70;99.90
53520;DHT22;39397;53.204;5.778;2023-03-01T01:52:19;-0.70;99.90
53520;DHT22;39397;53.204;5.778;2023-03-01T01:55:02;-0.80;99.90
53520;DHT22;39397;53.204;5.778;2023-03-01T01:57:36;-0.80;99.90
53520;DHT22;39397;53.204;5.778;2023-03-01T02:00:14;-0.80;99.90
53520;DHT22;39397;53.204;5.778;2023-03-01T02:02:41;-0.80;99.90
53520;DHT22;39397;53.204;5.778;2023-03-01T02:05:33;0.90;99.90
53520;DHT22;39397;53.204;5.778;2023-03-01T02:08:00;-0.80;99.90
53520;DHT22;39397;53.204;5.778;2023-03-01T02:10:28;-0.80;99.90
53520;DHT22;39397;53.204;5.778;2023-03-01T02:12:54;-0.80;99.90
53520;DHT22;39397;53.204;5.778;2023-03-01T02:15:22;-0.90;99.90
53520;DHT22;39397;53.204;5.778;2023-03-01T02:17:48;-0.80;99.90
53520;DHT22;39397;53.204;5.778;2023-03-01T02:22:46;-0.80;99.90
53520;DHT22;39397;53.204;5.778;2023-03-01T02:30:30;-0.80;99.90
53520;DHT22;39397;53.204;5.778;2023-03-01T02:32:57;-2.40;99.90
53520;DHT22;39397;53.204;5.778;2023-03-01T02:35:30;0.30;99.90
53520;DHT22;39397;53.204;5.778;2023-03-01T02:37:58;-0.70;99.90
53520;DHT22;39397;53.204;5.778;2023-03-01T02:40:26;-0.60;99.90
53520;DHT22;39397;53.204;5.778;2023-03-01T02:42:57;1.00;99.90
53520;DHT22;39397;53.204;5.778;2023-03-01T02:45:24;1.40;99.90
53520;DHT22;39397;53.204;5.778;2023-03-01T02:47:50;-0.10;99.90
53520;DHT22;39397;53.204;5.778;2023-03-01T02:52:57;-0.70;99.90
53520;DHT22;39397;53.204;5.778;2023-03-01T02:55:26;-0.70;99.90
53520;DHT22;39397;53.204;5.778;2023-03-01T02:57:53;0.50;99.90
53520;DHT22;39397;53.204;5.778;2023-03-01T03:00:26;-0.70;99.90
53520;DHT22;39397;53.204;5.778;2023-03-01T03:02:54;0.20;99.90
53520;DHT22;39397;53.204;5.778;2023-03-01T03:05:30;1.20;99.90
53520;DHT22;39397;53.204;5.778;2023-03-01T03:07:57;0.70;99.90
53520;DHT22;39397;53.204;5.778;2023-03-01T03:10:25;1.10;99.90
53520;DHT22;39397;53.204;5.778;2023-03-01T03:13:04;0.20;99.90
53520;DHT22;39397;53.204;5.778;2023-03-01T03:15:30;-0.70;99.90
53520;DHT22;39397;53.204;5.778;2023-03-01T03:17:57;-0.90;99.90
53520;DHT22;39397;53.204;5.778;2023-03-01T03:42:31;-0.80;99.90
53520;DHT22;39397;53.204;5.778;2023-03-01T03:44:56;-1.30;99.90
53520;DHT22;39397;53.204;5.778;2023-03-01T03:47:22;-0.10;99.90
53520;DHT22;39397;53.204;5.778;2023-03-01T03:49:48;-0.90;99.90
53520;DHT22;39397;53.204;5.778;2023-03-01T03:52:13;-0.40;99.90
53520;DHT22;39397;53.204;5.778;2023-03-01T03:54:40;0.10;99.90
53520;DHT22;39397;53.204;5.778;2023-03-01T03:57:06;-1.00;99.90
53520;DHT22;39397;53.204;5.778;2023-03-01T03:59:32;-0.40;99.90
53520;DHT22;39397;53.204;5.778;2023-03-01T04:01:58;-0.90;99.90
53520;DHT22;39397;53.204;5.778;2023-03-01T04:04:23;-0.60;99.90
53520;DHT22;39397;53.204;5.778;2023-03-01T04:06:49;-1.10;99.90
53520;DHT22;39397;53.204;5.778;2023-03-01T04:09:15;-0.40;99.90
53520;DHT22;39397;53.204;5.778;2023-03-01T04:11:40;0.70;99.90
53520;DHT22;39397;53.204;5.778;2023-03-01T04:14:06;-0.90;99.90
53520;DHT22;39397;53.204;5.778;2023-03-01T04:16:32;-0.90;99.90
53520;DHT22;39397;53.204;5.778;2023-03-01T04:18:58;-0.90;99.90
53520;DHT22;39397;53.204;5.778;2023-03-01T04:21:25;0.30;99.90
53520;DHT22;39397;53.204;5.778;2023-03-01T04:23:51;0.30;99.90
53520;DHT22;39397;53.204;5.778;2023-03-01T04:26:18;0.20;99.90
53520;DHT22;39397;53.204;5.778;2023-03-01T04:28:45;1.20;99.90
53520;DHT22;39397;53.204;5.778;2023-03-01T04:31:20;-0.80;99.90
53520;DHT22;39397;53.204;5.778;2023-03-01T04:33:54;-0.70;99.90
53520;DHT22;39397;53.204;5.778;2023-03-01T04:36:23;0.70;99.90
53520;DHT22;39397;53.204;5.778;2023-03-01T04:38:49;0.10;99.90
53520;DHT22;39397;53.204;5.778;2023-03-01T04:41:17;-0.70;99.90
53520;DHT22;39397;53.204;5.778;2023-03-01T04:43:43;0.30;99.90
53520;DHT22;39397;53.204;5.778;2023-03-01T04:46:12;-0.10;99.90
53520;DHT22;39397;53.204;5.778;2023-03-01T04:48:40;-0.90;99.90
53520;DHT22;39397;53.204;5.778;2023-03-01T04:51:06;0.70;99.90
53520;DHT22;39397;53.204;5.778;2023-03-01T04:53:33;-0.90;99.90
53520;DHT22;39397;53.204;5.778;2023-03-01T04:55:59;-0.90;99.90
53520;DHT22;39397;53.204;5.778;2023-03-01T04:58:26;-0.40;99.90
53520;DHT22;39397;53.204;5.778;2023-03-01T05:00:53;-0.90;99.90
53520;DHT22;39397;53.204;5.778;2023-03-01T05:03:19;0.70;99.90
53520;DHT22;39397;53.204;5.778;2023-03-01T05:05:46;0.60;99.90
53520;DHT22;39397;53.204;5.778;2023-03-01T05:08:13;-0.90;99.90
53520;DHT22;39397;53.204;5.778;2023-03-01T05:10:53;0.70;99.90
53520;DHT22;39397;53.204;5.778;2023-03-01T05:13:20;-0.10;99.90
53520;DHT22;39397;53.204;5.778;2023-03-01T05:15:53;-0.90;99.90
53520;DHT22;39397;53.204;5.778;2023-03-01T05:18:19;-0.80;99.90
53520;DHT22;39397;53.204;5.778;2023-03-01T05:20:44;-0.90;99.90
53520;DHT22;39397;53.204;5.778;2023-03-01T05:23:10;0.70;99.90
53520;DHT22;39397;53.204;5.778;2023-03-01T05:25:36;-0.70;99.90
53520;DHT22;39397;53.204;5.778;2023-03-01T05:28:09;-0.60;99.90
53520;DHT22;39397;53.204;5.778;2023-03-01T05:30:35;0.30;99.90
53520;DHT22;39397;53.204;5.778;2023-03-01T05:33:01;-0.20;99.90
53520;DHT22;39397;53.204;5.778;2023-03-01T05:35:27;1.00;99.90
53520;DHT22;39397;53.204;5.778;2023-03-01T05:37:54;-0.70;99.90
53520;DHT22;39397;53.204;5.778;2023-03-01T05:40:22;-0.80;99.90
53520;DHT22;39397;53.204;5.778;2023-03-01T05:42:53;-0.90;99.90
53520;DHT22;39397;53.204;5.778;2023-03-01T05:45:20;-0.80;99.90
53520;DHT22;39397;53.204;5.778;2023-03-01T05:47:48;0.40;99.90
53520;DHT22;39397;53.204;5.778;2023-03-01T05:50:20;0.90;99.90
53520;DHT22;39397;53.204;5.778;2023-03-01T05:52:50;-0.90;99.90
53520;DHT22;39397;53.204;5.778;2023-03-01T05:55:18;-0.90;99.90
53520;DHT22;39397;53.204;5.778;2023-03-01T05:57:44;-1.20;99.90
53520;DHT22;39397;53.204;5.778;2023-03-01T06:00:12;-1.00;99.90
53520;DHT22;39397;53.204;5.778;2023-03-01T06:02:38;-1.10;99.90
53520;DHT22;39397;53.204;5.778;2023-03-01T06:05:06;-0.90;99.90
53520;DHT22;39397;53.204;5.778;2023-03-01T06:07:32;-1.30;99.90
53520;DHT22;39397;53.204;5.778;2023-03-01T06:09:57;-1.30;99.90
53520;DHT22;39397;53.204;5.778;2023-03-01T06:12:23;-1.50;99.90
53520;DHT22;39397;53.204;5.778;2023-03-01T06:14:51;0.10;99.90
53520;DHT22;39397;53.204;5.778;2023-03-01T06:17:17;-1.60;99.90
53520;DHT22;39397;53.204;5.778;2023-03-01T06:19:42;0.00;99.90
53520;DHT22;39397;53.204;5.778;2023-03-01T06:22:08;-1.70;99.90
53520;DHT22;39397;53.204;5.778;2023-03-01T06:24:34;-1.60;99.90
53520;DHT22;39397;53.204;5.778;2023-03-01T06:27:00;-1.60;99.90
53520;DHT22;39397;53.204;5.778;2023-03-01T06:29:25;-1.80;99.90
53520;DHT22;39397;53.204;5.778;2023-03-01T06:31:51;-1.80;99.90
53520;DHT22;39397;53.204;5.778;2023-03-01T06:34:17;-1.90;99.90
53520;DHT22;39397;53.204;5.778;2023-03-01T06:36:43;-0.30;99.90
53520;DHT22;39397;53.204;5.778;2023-03-01T06:39:08;0.00;99.90
53520;DHT22;39397;53.204;5.778;2023-03-01T06:41:34;-1.80;99.90
53520;DHT22;39397;53.204;5.778;2023-03-01T06:44:00;-1.90;99.90
53520;DHT22;39397;53.204;5.778;2023-03-01T06:46:26;-1.90;99.90
53520;DHT22;39397;53.204;5.778;2023-03-01T06:48:51;-0.50;99.90
53520;DHT22;39397;53.204;5.778;2023-03-01T06:51:17;-0.80;99.90
53520;DHT22;39397;53.204;5.778;2023-03-01T06:53:43;-0.10;99.90
53520;DHT22;39397;53.204;5.778;2023-03-01T06:56:08;-0.70;99.90
53520;DHT22;39397;53.204;5.778;2023-03-01T06:58:34;-0.80;99.90
53520;DHT22;39397;53.204;5.778;2023-03-01T07:01:00;0.00;99.90
53520;DHT22;39397;53.204;5.778;2023-03-01T07:03:25;-0.40;99.90
53520;DHT22;39397;53.204;5.778;2023-03-01T07:05:51;-1.70;99.90
53520;DHT22;39397;53.204;5.778;2023-03-01T07:08:18;-0.20;99.90
53520;DHT22;39397;53.204;5.778;2023-03-01T07:10:44;-1.40;99.90
53520;DHT22;39397;53.204;5.778;2023-03-01T07:13:10;-0.70;99.90
53520;DHT22;39397;53.204;5.778;2023-03-01T07:15:36;0.00;99.90
53520;DHT22;39397;53.204;5.778;2023-03-01T07:18:01;-1.60;99.90
53520;DHT22;39397;53.204;5.778;2023-03-01T07:20:27;-1.60;99.90
53520;DHT22;39397;53.204;5.778;2023-03-01T07:22:54;-1.60;99.90
53520;DHT22;39397;53.204;5.778;2023-03-01T07:25:20;-1.60;99.90
53520;DHT22;39397;53.204;5.778;2023-03-01T07:27:50;-1.60;99.90
53520;DHT22;39397;53.204;5.778;2023-03-01T07:30:16;-0.40;99.90
53520;DHT22;39397;53.204;5.778;2023-03-01T07:32:42;-1.50;99.90
53520;DHT22;39397;53.204;5.778;2023-03-01T07:35:08;-1.30;99.90
53520;DHT22;39397;53.204;5.778;2023-03-01T07:37:34;-1.40;99.90
53520;DHT22;39397;53.204;5.778;2023-03-01T07:39:59;0.80;99.90
53520;DHT22;39397;53.204;5.778;2023-03-01T07:42:25;-1.10;99.90
53520;DHT22;39397;53.204;5.778;2023-03-01T07:44:51;0.50;99.90
53520;DHT22;39397;53.204;5.778;2023-03-01T07:47:16;1.00;99.90
53520;DHT22;39397;53.204;5.778;2023-03-01T07:49:42;-0.80;99.90
53520;DHT22;39397;53.204;5.778;2023-03-01T07:52:10;0.60;99.90
53520;DHT22;39397;53.204;5.778;2023-03-01T07:54:36;0.30;99.90
53520;DHT22;39397;53.204;5.778;2023-03-01T07:57:02;-0.60;99.90
53520;DHT22;39397;53.204;5.778;2023-03-01T07:59:28;0.00;99.90
53520;DHT22;39397;53.204;5.778;2023-03-01T08:01:58;-0.50;99.90
53520;DHT22;39397;53.204;5.778;2023-03-01T08:04:24;1.30;99.90
53520;DHT22;39397;53.204;5.778;2023-03-01T08:06:53;-0.20;99.90
53520;DHT22;39397;53.204;5.778;2023-03-01T08:09:19;1.30;99.90
53520;DHT22;39397;53.204;5.778;2023-03-01T08:11:45;1.50;99.90
53520;DHT22;39397;53.204;5.778;2023-03-01T08:14:10;0.00;99.90
53520;DHT22;39397;53.204;5.778;2023-03-01T08:16:36;0.70;99.90
53520;DHT22;39397;53.204;5.778;2023-03-01T08:19:06;0.50;99.90
53520;DHT22;39397;53.204;5.778;2023-03-01T08:21:32;1.30;99.90
53520;DHT22;39397;53.204;5.778;2023-03-01T08:24:01;0.50;99.90
53520;DHT22;39397;53.204;5.778;2023-03-01T08:26:27;0.60;99.90
53520;DHT22;39397;53.204;5.778;2023-03-01T08:28:53;2.50;99.90
53520;DHT22;39397;53.204;5.778;2023-03-01T08:31:22;2.70;99.90
53520;DHT22;39397;53.204;5.778;2023-03-01T08:33:49;1.20;99.90
53520;DHT22;39397;53.204;5.778;2023-03-01T08:36:17;2.30;99.90
53520;DHT22;39397;53.204;5.778;2023-03-01T08:38:43;0.90;99.90
53520;DHT22;39397;53.204;5.778;2023-03-01T08:41:09;1.20;99.90
53520;DHT22;39397;53.204;5.778;2023-03-01T08:43:35;2.80;99.90
53520;DHT22;39397;53.204;5.778;2023-03-01T08:46:02;2.40;99.90
53520;DHT22;39397;53.204;5.778;2023-03-01T08:48:28;0.40;99.90
53520;DHT22;39397;53.204;5.778;2023-03-01T08:50:54;1.60;99.90
53520;DHT22;39397;53.204;5.778;2023-03-01T08:53:20;3.40;99.90
53520;DHT22;39397;53.204;5.778;2023-03-01T08:55:46;1.70;99.90
53520;DHT22;39397;53.204;5.778;2023-03-01T08:58:12;2.80;99.90
53520;DHT22;39397;53.204;5.778;2023-03-01T09:00:38;2.00;99.90
53520;DHT22;39397;53.204;5.778;2023-03-01T09:03:03;2.00;99.90
53520;DHT22;39397;53.204;5.778;2023-03-01T09:05:32;2.30;99.90
53520;DHT22;39397;53.204;5.778;2023-03-01T09:07:58;2.30;99.90
53520;DHT22;39397;53.204;5.778;2023-03-01T09:10:24;3.30;99.90
53520;DHT22;39397;53.204;5.778;2023-03-01T09:12:49;3.30;99.90
53520;DHT22;39397;53.204;5.778;2023-03-01T09:15:16;2.50;99.90
53520;DHT22;39397;53.204;5.778;2023-03-01T09:17:42;4.20;99.90
53520;DHT22;39397;53.204;5.778;2023-03-01T09:20:08;4.40;99.90
53520;DHT22;39397;53.204;5.778;2023-03-01T09:22:34;2.80;99.90
53520;DHT22;39397;53.204;5.778;2023-03-01T09:25:00;4.00;99.90
53520;DHT22;39397;53.204;5.778;2023-03-01T09:27:26;3.60;99.90
53520;DHT22;39397;53.204;5.778;2023-03-01T09:29:52;3.20;99.90
53520;DHT22;39397;53.204;5.778;2023-03-01T09:32:18;4.10;99.90
53520;DHT22;39397;53.204;5.778;2023-03-01T09:34:43;5.10;99.90
53520;DHT22;39397;53.204;5.778;2023-03-01T09:37:30;5.40;99.90
53520;DHT22;39397;53.204;5.778;2023-03-01T09:39:56;4.30;99.90
53520;DHT22;39397;53.204;5.778;2023-03-01T09:42:22;3.80;99.90
53520;DHT22;39397;53.204;5.778;2023-03-01T09:44:57;5.40;99.90
53520;DHT22;39397;53.204;5.778;2023-03-01T09:47:35;3.80;99.90
53520;DHT22;39397;53.204;5.778;2023-03-01T09:50:16;5.50;99.90
53520;DHT22;39397;53.204;5.778;2023-03-01T09:53:02;4.60;99.90
53520;DHT22;39397;53.204;5.778;2023-03-01T09:55:40;4.80;99.90
53520;DHT22;39397;53.204;5.778;2023-03-01T10:00:44;4.40;99.90
53520;DHT22;39397;53.204;5.778;2023-03-01T10:03:17;4.40;99.90
53520;DHT22;39397;53.204;5.778;2023-03-01T10:06:04;4.60;99.90
53520;DHT22;39397;53.204;5.778;2023-03-01T10:08:38;4.60;99.90
53520;DHT22;39397;53.204;5.778;2023-03-01T10:11:22;4.60;99.90
53520;DHT22;39397;53.204;5.778;2023-03-01T10:14:05;4.80;99.90
53520;DHT22;39397;53.204;5.778;2023-03-01T10:16:53;4.70;99.90
53520;DHT22;39397;53.204;5.778;2023-03-01T10:19:29;6.60;99.90
53520;DHT22;39397;53.204;5.778;2023-03-01T10:22:03;6.30;99.90
53520;DHT22;39397;53.204;5.778;2023-03-01T10:24:34;5.50;99.90
53520;DHT22;39397;53.204;5.778;2023-03-01T10:27:09;5.40;99.90
53520;DHT22;39397;53.204;5.778;2023-03-01T10:32:20;5.50;99.90
53520;DHT22;39397;53.204;5.778;2023-03-01T10:34:47;5.50;99.90
53520;DHT22;39397;53.204;5.778;2023-03-01T10:37:20;5.60;99.90
53520;DHT22;39397;53.204;5.778;2023-03-01T10:40:10;6.60;99.90
53520;DHT22;39397;53.204;5.778;2023-03-01T10:42:37;5.80;99.90
53520;DHT22;39397;53.204;5.778;2023-03-01T10:47:44;5.80;99.90
53520;DHT22;39397;53.204;5.778;2023-03-01T10:50:21;6.60;99.90
53520;DHT22;39397;53.204;5.778;2023-03-01T10:53:27;5.90;99.90
53520;DHT22;39397;53.204;5.778;2023-03-01T10:56:10;6.00;99.90
53520;DHT22;39397;53.204;5.778;2023-03-01T10:58:40;6.00;99.90
53520;DHT22;39397;53.204;5.778;2023-03-01T11:04:10;6.90;99.90
53520;DHT22;39397;53.204;5.778;2023-03-01T11:06:39;6.30;99.90
53520;DHT22;39397;53.204;5.778;2023-03-01T11:09:19;6.30;99.90
53520;DHT22;39397;53.204;5.778;2023-03-01T11:11:46;6.40;99.90
53520;DHT22;39397;53.204;5.778;2023-03-01T11:14:26;6.60;99.90
53520;DHT22;39397;53.204;5.778;2023-03-01T11:17:03;6.50;99.90
53520;DHT22;39397;53.204;5.778;2023-03-01T11:19:30;7.60;99.90
53520;DHT22;39397;53.204;5.778;2023-03-01T11:22:01;7.20;99.90
53520;DHT22;39397;53.204;5.778;2023-03-01T11:24:39;7.70;99.90
53520;DHT22;39397;53.204;5.778;2023-03-01T11:27:17;7.00;99.90
53520;DHT22;39397;53.204;5.778;2023-03-01T11:29:46;6.70;99.90
53520;DHT22;39397;53.204;5.778;2023-03-01T11:32:16;7.80;99.90
53520;DHT22;39397;53.204;5.778;2023-03-01T11:35:05;7.50;99.90
53520;DHT22;39397;53.204;5.778;2023-03-01T11:37:59;7.80;99.90
53520;DHT22;39397;53.204;5.778;2023-03-01T11:40:35;6.80;99.90
53520;DHT22;39397;53.204;5.778;2023-03-01T11:51:07;8.70;99.90
53520;DHT22;39397;53.204;5.778;2023-03-01T12:13:15;8.60;99.90
53520;DHT22;39397;53.204;5.778;2023-03-01T12:32:12;7.80;99.90
53520;DHT22;39397;53.204;5.778;2023-03-01T12:37:46;7.70;99.90
53520;DHT22;39397;53.204;5.778;2023-03-01T12:51:24;7.90;99.90
53520;DHT22;39397;53.204;5.778;2023-03-01T12:53:54;8.10;99.90
53520;DHT22;39397;53.204;5.778;2023-03-01T12:56:23;8.60;99.90
53520;DHT22;39397;53.204;5.778;2023-03-01T12:59:34;8.20;99.90
53520;DHT22;39397;53.204;5.778;2023-03-01T13:02:26;8.20;99.90
53520;DHT22;39397;53.204;5.778;2023-03-01T13:05:24;8.30;99.90
53520;DHT22;39397;53.204;5.778;2023-03-01T13:13:19;8.20;99.90
53520;DHT22;39397;53.204;5.778;2023-03-01T13:15:45;8.20;99.90
53520;DHT22;39397;53.204;5.778;2023-03-01T13:31:01;8.40;99.90
53520;DHT22;39397;53.204;5.778;2023-03-01T13:35:56;8.40;99.90
53520;DHT22;39397;53.204;5.778;2023-03-01T13:38:48;8.50;99.90
53520;DHT22;39397;53.204;5.778;2023-03-01T13:41:53;8.50;99.90
53520;DHT22;39397;53.204;5.778;2023-03-01T13:46:48;8.60;99.90
53520;DHT22;39397;53.204;5.778;2023-03-01T13:49:20;8.60;99.90
53520;DHT22;39397;53.204;5.778;2023-03-01T13:51:47;8.80;99.90
53520;DHT22;39397;53.204;5.778;2023-03-01T13:54:18;8.80;99.90
53520;DHT22;39397;53.204;5.778;2023-03-01T13:56:46;8.70;99.90
53520;DHT22;39397;53.204;5.778;2023-03-01T13:59:20;8.50;99.90
53520;DHT22;39397;53.204;5.778;2023-03-01T14:01:58;8.60;99.90
53520;DHT22;39397;53.204;5.778;2023-03-01T14:04:28;8.60;99.90
53520;DHT22;39397;53.204;5.778;2023-03-01T14:07:17;8.70;99.90
53520;DHT22;39397;53.204;5.778;2023-03-01T14:09:45;8.70;99.90
53520;DHT22;39397;53.204;5.778;2023-03-01T14:20:27;8.70;99.90
53520;DHT22;39397;53.204;5.778;2023-03-01T14:22:59;8.70;99.90
53520;DHT22;39397;53.204;5.778;2023-03-01T14:25:35;8.40;99.90
53520;DHT22;39397;53.204;5.778;2023-03-01T14:30:50;8.80;99.90
53520;DHT22;39397;53.204;5.778;2023-03-01T14:33:29;8.80;99.90
53520;DHT22;39397;53.204;5.778;2023-03-01T14:36:02;8.90;99.90
53520;DHT22;39397;53.204;5.778;2023-03-01T14:38:36;7.40;99.90
53520;DHT22;39397;53.204;5.778;2023-03-01T14:41:18;8.60;99.90
53520;DHT22;39397;53.204;5.778;2023-03-01T14:43:50;8.70;99.90
53520;DHT22;39397;53.204;5.778;2023-03-01T14:46:23;8.70;99.90
53520;DHT22;39397;53.204;5.778;2023-03-01T14:48:56;8.70;99.90
53520;DHT22;39397;53.204;5.778;2023-03-01T14:51:23;9.30;99.90
53520;DHT22;39397;53.204;5.778;2023-03-01T14:53:50;8.60;99.90
53520;DHT22;39397;53.204;5.778;2023-03-01T14:56:17;8.70;99.90
53520;DHT22;39397;53.204;5.778;2023-03-01T14:58:46;8.60;99.90
53520;DHT22;39397;53.204;5.778;2023-03-01T15:01:17;9.90;99.90
53520;DHT22;39397;53.204;5.778;2023-03-01T15:03:48;8.50;99.90
53520;DHT22;39397;53.204;5.778;2023-03-01T15:06:19;8.50;99.90
53520;DHT22;39397;53.204;5.778;2023-03-01T15:08:52;8.60;99.90
53520;DHT22;39397;53.204;5.778;2023-03-01T15:13:51;8.80;99.90
53520;DHT22;39397;53.204;5.778;2023-03-01T15:16:19;9.00;99.90
53520;DHT22;39397;53.204;5.778;2023-03-01T15:18:52;9.20;99.90
53520;DHT22;39397;53.204;5.778;2023-03-01T15:21:22;9.20;99.90
53520;DHT22;39397;53.204;5.778;2023-03-01T15:23:55;9.40;99.90
53520;DHT22;39397;53.204;5.778;2023-03-01T15:26:37;9.50;99.90
53520;DHT22;39397;53.204;5.778;2023-03-01T15:29:05;9.70;99.90
53520;DHT22;39397;53.204;5.778;2023-03-01T15:31:43;9.70;99.90
53520;DHT22;39397;53.204;5.778;2023-03-01T15:34:21;9.70;99.90
53520;DHT22;39397;53.204;5.778;2023-03-01T15:36:48;9.60;99.90
53520;DHT22;39397;53.204;5.778;2023-03-01T15:39:37;9.20;99.90
53520;DHT22;39397;53.204;5.778;2023-03-01T15:42:09;9.00;99.90
53520;DHT22;39397;53.204;5.778;2023-03-01T15:44:39;8.80;99.90
53520;DHT22;39397;53.204;5.778;2023-03-01T15:47:30;8.60;99.90
53520;DHT22;39397;53.204;5.778;2023-03-01T15:49:58;8.40;99.90
53520;DHT22;39397;53.204;5.778;2023-03-01T15:52:29;9.00;99.90
53520;DHT22;39397;53.204;5.778;2023-03-01T15:55:03;8.50;99.90
53520;DHT22;39397;53.204;5.778;2023-03-01T15:57:30;8.20;99.90
53520;DHT22;39397;53.204;5.778;2023-03-01T15:59:55;8.90;99.90
53520;DHT22;39397;53.204;5.778;2023-03-01T16:02:22;7.90;99.90
53520;DHT22;39397;53.204;5.778;2023-03-01T16:04:49;8.80;99.90
53520;DHT22;39397;53.204;5.778;2023-03-01T16:07:15;7.80;99.90
53520;DHT22;39397;53.204;5.778;2023-03-01T16:09:41;8.50;99.90
53520;DHT22;39397;53.204;5.778;2023-03-01T16:12:14;7.60;99.90
53520;DHT22;39397;53.204;5.778;2023-03-01T16:14:40;7.70;99.90
53520;DHT22;39397;53.204;5.778;2023-03-01T16:17:06;7.50;99.90
53520;DHT22;39397;53.204;5.778;2023-03-01T16:19:35;8.20;99.90
53520;DHT22;39397;53.204;5.778;2023-03-01T16:22:03;7.40;99.90
53520;DHT22;39397;53.204;5.778;2023-03-01T16:24:29;7.30;99.90
53520;DHT22;39397;53.204;5.778;2023-03-01T16:26:55;7.50;99.90
53520;DHT22;39397;53.204;5.778;2023-03-01T16:29:21;8.20;99.90
53520;DHT22;39397;53.204;5.778;2023-03-01T16:31:46;7.70;99.90
53520;DHT22;39397;53.204;5.778;2023-03-01T16:34:13;7.40;99.90
53520;DHT22;39397;53.204;5.778;2023-03-01T16:36:39;8.20;99.90
53520;DHT22;39397;53.204;5.778;2023-03-01T16:39:04;6.80;99.90
53520;DHT22;39397;53.204;5.778;2023-03-01T16:41:31;7.60;99.90
53520;DHT22;39397;53.204;5.778;2023-03-01T16:43:57;6.60;99.90
53520;DHT22;39397;53.204;5.778;2023-03-01T16:46:25;6.60;99.90
53520;DHT22;39397;53.204;5.778;2023-03-01T16:48:55;6.70;99.90
53520;DHT22;39397;53.204;5.778;2023-03-01T16:51:22;6.40;99.90
53520;DHT22;39397;53.204;5.778;2023-03-01T16:53:49;6.40;99.90
53520;DHT22;39397;53.204;5.778;2023-03-01T16:56:15;7.30;99.90
53520;DHT22;39397;53.204;5.778;2023-03-01T16:58:42;7.20;99.90
53520;DHT22;39397;53.204;5.778;2023-03-01T17:01:10;5.90;99.90
53520;DHT22;39397;53.204;5.778;2023-03-01T17:03:37;6.30;99.90
53520;DHT22;39397;53.204;5.778;2023-03-01T17:06:06;7.00;99.90
53520;DHT22;39397;53.204;5.778;2023-03-01T17:08:32;5.70;99.90
53520;DHT22;39397;53.204;5.778;2023-03-01T17:11:10;5.60;99.90
53520;DHT22;39397;53.204;5.778;2023-03-01T17:13:38;6.90;99.90
53520;DHT22;39397;53.204;5.778;2023-03-01T17:16:05;5.60;99.90
53520;DHT22;39397;53.204;5.778;2023-03-01T17:18:32;5.30;99.90
53520;DHT22;39397;53.204;5.778;2023-03-01T17:20:58;6.50;99.90
53520;DHT22;39397;53.204;5.778;2023-03-01T17:23:25;5.20;99.90
53520;DHT22;39397;53.204;5.778;2023-03-01T17:25:52;5.30;99.90
53520;DHT22;39397;53.204;5.778;2023-03-01T17:28:21;6.20;99.90
53520;DHT22;39397;53.204;5.778;2023-03-01T17:30:47;6.10;99.90
53520;DHT22;39397;53.204;5.778;2023-03-01T17:33:14;5.80;99.90
53520;DHT22;39397;53.204;5.778;2023-03-01T17:35:40;4.90;99.90
53520;DHT22;39397;53.204;5.778;2023-03-01T17:38:05;4.90;99.90
53520;DHT22;39397;53.204;5.778;2023-03-01T17:40:31;6.00;99.90
53520;DHT22;39397;53.204;5.778;2023-03-01T17:42:57;4.80;99.90
53520;DHT22;39397;53.204;5.778;2023-03-01T17:45:23;5.90;99.90
53520;DHT22;39397;53.204;5.778;2023-03-01T17:47:49;5.30;99.90
53520;DHT22;39397;53.204;5.778;2023-03-01T17:50:15;4.70;99.90
53520;DHT22;39397;53.204;5.778;2023-03-01T17:52:41;4.40;99.90
53520;DHT22;39397;53.204;5.778;2023-03-01T17:55:08;4.30;99.90
53520;DHT22;39397;53.204;5.778;2023-03-01T17:57:34;4.30;99.90
53520;DHT22;39397;53.204;5.778;2023-03-01T17:59:59;4.70;99.90
53520;DHT22;39397;53.204;5.778;2023-03-01T18:02:25;4.30;99.90
53520;DHT22;39397;53.204;5.778;2023-03-01T18:04:51;5.40;99.90
53520;DHT22;39397;53.204;5.778;2023-03-01T18:07:18;4.50;99.90
53520;DHT22;39397;53.204;5.778;2023-03-01T18:09:44;4.70;99.90
53520;DHT22;39397;53.204;5.778;2023-03-01T18:12:10;4.10;99.90
53520;DHT22;39397;53.204;5.778;2023-03-01T18:14:36;5.20;99.90
53520;DHT22;39397;53.204;5.778;2023-03-01T18:17:02;5.30;99.90